Latest Weather Observations for Hogan Island

IDT60801

Issued at 1:02 pm EST Saturday 27 August 2016 (issued every 30 minutes, with the page automatically refreshed every 10 minutes)

About weather observations | Map of weather stations | Latest weather observations for TAS | Other Formats
Station Details ID: 200838 Name: HOGAN ISLAND Lat: -39.22 Lon: 146.98 Height: 116.0 m
Data from the previous 72 hours. | See also: Recent months at Hogan Island
Date/Time
EST
Temp
°C
App
Temp
°C
Dew
Point
°C
Rel
Hum
%
Delta-T
°C
Wind Press
QNH
hPa
Press
MSL
hPa
Rain since
9am
mm
Dir  Spd
km/h
Gust
km/h
Spd
kts
Gust
kts
27/01:00pm 12.3 1.9 6.1 66 2.9 WNW 50 59 27 32 1017.1 - 0.2
27/12:30pm 11.9 2.3 6.2 68 2.7 WNW 46 57 25 31 1017.6 - 0.2
27/12:00pm 12.1 1.1 6.6 69 2.6 W 54 63 29 34 1017.8 1018.0 0.2
27/11:30am 11.9 1.6 6.4 69 2.6 WNW 50 61 27 33 1018.2 - 0.2
27/11:00am 11.3 0.2 6.2 71 2.4 WNW 54 63 29 34 1018.3 - 0.2
27/10:30am 10.9 -0.1 6.6 75 2.0 WNW 54 59 29 32 1018.2 - 0.2
27/10:00am 10.5 -0.9 6.6 77 1.8 WNW 56 61 30 33 1018.4 - 0.2
27/09:30am 10.1 -1.5 6.6 79 1.6 WNW 57 69 31 37 1018.5 - 0.0
27/09:00am 10.1 -1.4 6.4 78 1.7 WNW 56 63 30 34 1018.5 1018.7 0.6
27/08:30am 10.1 -1.3 6.6 79 1.6 WNW 56 65 30 35 1018.6 - 0.6
27/08:00am 10.1 -1.3 6.8 80 1.6 WNW 56 63 30 34 1018.5 - 0.6
27/07:30am 9.9 -1.1 7.0 82 1.4 WNW 54 65 29 35 1018.1 - 0.6
27/07:00am 9.6 -1.0 7.0 84 1.2 WNW 52 61 28 33 1018.2 - 0.6
27/06:30am 9.6 -0.5 7.4 86 1.1 WNW 50 59 27 32 1018.1 - 0.6
27/06:00am 9.3 -0.8 7.3 87 0.9 WNW 50 57 27 31 1017.8 1018.0 0.6
27/05:30am 9.4 -0.7 7.5 88 0.9 WNW 50 56 27 30 1017.8 - 0.6
27/05:00am 9.4 -1.1 7.5 88 0.9 WNW 52 57 28 31 1017.7 - 0.6
27/04:30am 9.3 -0.4 7.6 89 0.8 WNW 48 56 26 30 1017.7 - 0.6
27/04:00am 9.6 0.8 8.0 90 0.8 WNW 44 52 24 28 1017.6 - 0.6
27/03:30am 9.7 0.9 8.0 89 0.8 WNW 44 52 24 28 1017.7 - 0.6
27/03:00am 9.6 0.8 8.0 90 0.8 WNW 44 50 24 27 1017.8 1018.0 0.6
27/02:30am 9.9 1.1 8.2 89 0.8 WNW 44 54 24 29 1018.0 - 0.6
27/02:00am 9.7 0.5 8.1 90 0.8 WNW 46 57 25 31 1018.2 - 0.6
27/01:30am 9.4 -0.6 7.8 90 0.8 W 50 67 27 36 1018.5 - 0.6
27/01:25am 10.1 1.6 8.5 90 0.8 W 43 67 23 36 1018.3 - 0.6
27/01:00am 10.1 1.6 8.7 91 0.7 WNW 43 52 23 28 1018.8 - 0.6
27/12:30am 9.4 -0.1 8.2 92 0.6 WNW 48 56 26 30 1018.7 - 0.6
27/12:00am 9.5 0.8 8.3 92 0.6 W 44 54 24 29 1018.9 1019.1 0.6
 
Date/Time
EST
Temp
°C
App
Temp
°C
Dew
Point
°C
Rel
Hum
%
Delta-T
°C
Wind Press
QNH
hPa
Press
MSL
hPa
Rain since
9am
mm
Dir  Spd
km/h
Gust
km/h
Spd
kts
Gust
kts
26/11:30pm 9.5 0.0 8.3 92 0.6 W 48 54 26 29 1018.9 - 0.6
26/11:00pm 9.2 1.0 8.1 93 0.5 W 41 48 22 26 1019.0 - 0.4
26/10:30pm 9.0 -1.0 7.8 92 0.6 WNW 50 61 27 33 1018.9 - 0.4
26/10:05pm 9.4 0.6 8.2 92 0.6 WNW 44 63 24 34 1018.7 - 0.4
26/10:00pm 9.3 0.6 7.9 91 0.7 WNW 43 52 23 28 1019.0 - 0.2
26/09:30pm 9.7 -0.2 8.1 90 0.8 WNW 50 59 27 32 1018.7 - 0.0
26/09:00pm 9.6 -1.2 7.7 88 0.9 W 54 65 29 35 1018.6 1018.8 0.0
26/08:30pm 9.9 0.3 8.0 88 0.9 WNW 48 57 26 31 1018.7 - 0.0
26/08:00pm 9.9 0.7 8.2 89 0.8 WNW 46 57 25 31 1018.6 - 0.0
26/07:30pm 9.7 1.0 8.3 91 0.7 WNW 44 54 24 29 1018.6 - 0.0
26/07:00pm 9.1 -0.6 7.5 90 0.8 W 48 56 26 30 1018.4 - 0.0
26/06:30pm 8.9 -2.3 7.4 90 0.7 WNW 56 65 30 35 1018.1 - 0.0
26/06:00pm 9.5 -1.9 7.6 88 0.9 W 57 65 31 35 1018.0 1018.2 0.0
26/05:30pm 9.0 -1.7 6.4 84 1.2 W 52 59 28 32 1017.7 - 0.0
26/05:00pm 9.9 -1.3 5.7 75 1.9 W 54 63 29 34 1017.5 - 0.0
26/04:30pm 10.8 -0.2 5.1 68 2.6 W 52 59 28 32 1017.5 - 0.0
26/04:00pm 11.2 -0.2 4.9 65 2.9 W 54 61 29 33 1017.3 - 0.0
26/03:30pm 12.3 1.4 5.5 63 3.2 W 52 61 28 33 1017.3 - 0.0
26/03:00pm 11.8 0.0 5.7 66 2.8 W 57 65 31 35 1017.1 1017.2 0.0
26/02:30pm 11.9 1.0 5.5 65 3.0 W 52 59 28 32 1017.3 - 0.0
26/02:00pm 11.2 -0.7 4.4 63 3.1 W 56 63 30 34 1017.5 - 0.0
26/01:30pm 11.1 -0.4 4.3 63 3.1 W 54 63 29 34 1017.5 - 0.0
26/01:00pm 11.6 0.9 4.8 63 3.1 W 50 61 27 33 1017.7 - 0.0
26/12:30pm 11.6 1.6 6.1 69 2.6 W 48 57 26 31 1018.0 - 0.0
26/12:00pm 11.8 0.8 5.2 64 3.0 W 52 63 28 34 1018.2 1018.4 0.0
26/11:30am 11.3 0.3 5.0 65 2.9 W 52 61 28 33 1018.2 - 0.0
26/11:00am 11.8 3.0 7.1 73 2.3 W 43 48 23 26 1018.5 - 0.0
26/10:30am 10.4 0.0 6.0 74 2.0 WSW 50 57 27 31 1018.4 - 0.0
26/10:00am 11.0 0.7 6.6 74 2.1 W 50 61 27 33 1018.3 - 0.0
26/09:30am 8.9 -0.2 6.0 82 1.3 W 43 54 23 29 1018.6 - 0.0
26/09:21am 9.2 -1.2 5.9 80 1.5 WSW 50 61 27 33 1018.6 - 0.0
26/09:00am 9.7 -0.6 6.6 81 1.5 W 50 57 27 31 1018.3 1018.5 0.6
26/08:30am 8.9 -2.2 6.5 85 1.1 W 54 59 29 32 1018.1 - 0.4
26/08:21am 8.7 0.4 6.3 85 1.1 WSW 39 59 21 32 1018.1 - 0.4
26/08:00am 9.6 0.5 7.0 84 1.2 W 44 52 24 28 1018.2 - 0.4
26/07:58am 9.6 0.5 7.0 84 1.2 W 44 52 24 28 1018.2 - 0.4
26/07:30am 8.5 -0.6 6.1 85 1.1 WSW 43 54 23 29 1018.1 - 0.4
26/07:19am 8.8 0.5 6.1 83 1.2 SW 39 57 21 31 1018.1 - 0.0
26/07:16am 8.8 0.5 5.9 82 1.3 SW 39 50 21 27 1018.1 - 0.0
26/07:00am 9.3 0.0 5.7 78 1.7 W 44 54 24 29 1017.7 - 0.0
26/06:30am 9.4 0.1 5.9 79 1.6 W 44 54 24 29 1017.3 - 0.0
26/06:00am 9.1 1.1 5.8 80 1.5 W 37 48 20 26 1017.1 1017.2 0.0
26/05:54am 8.9 2.2 5.6 80 1.5 W 30 48 16 26 1017.2 - 0.0
26/05:30am 8.2 1.3 4.6 78 1.6 W 30 37 16 20 1017.2 - 0.0
26/05:00am 8.8 -1.3 4.0 72 2.1 WSW 46 52 25 28 1016.8 - 0.0
26/04:30am 9.2 1.3 2.5 63 2.9 WSW 33 39 18 21 1016.7 - 0.0
26/04:00am 9.3 0.4 3.1 65 2.7 WSW 39 46 21 25 1016.5 - 0.0
26/03:30am 9.3 -1.3 3.1 65 2.7 WSW 48 54 26 29 1016.4 - 0.0
26/03:00am 9.3 -0.1 4.5 72 2.1 WSW 43 50 23 27 1016.5 1016.6 0.0
26/02:30am 9.7 0.3 4.7 71 2.2 WSW 43 52 23 28 1016.6 - 0.0
26/02:00am 9.6 2.0 4.0 68 2.5 WSW 33 41 18 22 1016.7 - 0.0
26/01:30am 9.5 1.1 3.9 68 2.5 WSW 37 46 20 25 1016.7 - 0.0
26/01:00am 9.1 -0.1 3.5 68 2.4 SW 41 48 22 26 1016.8 - 0.0
26/12:30am 9.3 0.3 4.3 71 2.2 SW 41 46 22 25 1016.6 - 0.0
26/12:00am 9.6 0.6 4.4 70 2.3 SW 41 48 22 26 1016.6 1016.7 0.0
 
Date/Time
EST
Temp
°C
App
Temp
°C
Dew
Point
°C
Rel
Hum
%
Delta-T
°C
Wind Press
QNH
hPa
Press
MSL
hPa
Rain since
9am
mm
Dir  Spd
km/h
Gust
km/h
Spd
kts
Gust
kts
25/11:30pm 9.8 0.8 4.8 71 2.3 SW 41 48 22 26 1016.4 - 0.0
25/11:00pm 9.7 -0.1 5.3 74 2.0 SW 46 54 25 29 1016.3 - 0.0
25/10:30pm 9.9 0.8 6.1 77 1.8 SW 43 50 23 27 1016.2 - 0.0
25/10:00pm 9.9 0.9 6.2 78 1.7 SW 43 50 23 27 1016.0 - 0.0
25/09:30pm 10.0 1.4 6.3 78 1.7 SW 41 46 22 25 1015.9 - 0.0
25/09:00pm 10.3 2.8 6.5 77 1.8 SW 35 41 19 22 1015.8 1015.9 0.0
25/08:30pm 9.9 2.7 5.9 76 1.9 WSW 33 37 18 20 1015.6 - 0.0
25/08:00pm 10.0 3.0 6.0 76 1.9 WSW 32 39 17 21 1015.3 - 0.0
25/07:30pm 9.5 2.8 5.5 76 1.8 SW 30 33 16 18 1015.2 - 0.0
25/07:00pm 9.6 3.3 5.6 76 1.8 SW 28 32 15 17 1014.8 - 0.0
25/06:30pm 9.4 2.0 5.2 75 1.9 SW 33 39 18 21 1014.4 - 0.0
25/06:00pm 9.2 2.0 5.0 75 1.9 SW 32 35 17 19 1014.1 1014.2 0.0
25/05:30pm 9.0 1.7 4.4 73 2.0 SW 32 39 17 21 1013.8 - 0.0
25/05:00pm 9.2 1.7 4.2 71 2.2 WSW 33 39 18 21 1013.5 - 0.0
25/04:30pm 9.8 2.3 4.6 70 2.3 SW 33 41 18 22 1013.3 - 0.0
25/04:00pm 10.5 3.0 4.6 67 2.7 SW 33 39 18 21 1013.1 - 0.0
25/03:30pm 10.9 3.6 4.6 65 2.9 SW 32 39 17 21 1012.9 - 0.0
25/03:00pm 11.3 4.6 5.4 67 2.7 SW 30 35 16 19 1012.7 1012.8 0.0
25/02:30pm 11.7 5.0 5.8 67 2.8 SW 30 37 16 20 1012.6 - 0.0
25/02:00pm 9.9 2.5 4.1 67 2.6 SW 32 37 17 20 1012.2 - 0.0
25/01:30pm 11.6 5.3 5.7 67 2.8 WSW 28 35 15 19 1012.1 - 0.0
25/01:00pm 11.6 4.9 5.7 67 2.8 SW 30 35 16 19 1012.1 - 0.0
25/12:30pm 11.8 5.5 5.9 67 2.8 SW 28 33 15 18 1012.1 - 0.0
25/12:00pm 11.5 4.8 5.6 67 2.8 WSW 30 37 16 20 1012.1 1012.2 0.0
25/11:30am 10.6 3.5 5.4 70 2.4 SW 32 39 17 21 1012.2 - 0.0
25/11:00am 10.7 3.6 5.3 69 2.5 WSW 32 41 17 22 1012.1 - 0.0
25/10:30am 10.3 2.4 4.5 67 2.6 WSW 35 43 19 23 1011.9 - 0.0
25/10:00am 9.5 1.9 4.1 69 2.4 SW 33 41 18 22 1011.6 - 0.0
25/09:30am 9.3 0.6 4.3 71 2.2 SW 39 44 21 24 1011.4 - 0.0
25/09:00am 9.3 0.6 4.3 71 2.2 SW 39 46 21 25 1011.5 1011.6 1.6
25/08:30am 8.8 -0.3 4.0 72 2.1 WSW 41 46 22 25 1011.3 - 1.6
25/08:00am 8.7 0.4 4.3 74 1.9 WSW 37 44 20 24 1011.2 - 1.6
25/07:30am 8.4 -0.6 4.4 76 1.8 WSW 41 48 22 26 1010.7 - 1.6
25/07:00am 8.2 0.3 4.4 77 1.7 SW 35 43 19 23 1010.5 - 1.6
25/06:30am 8.1 -0.1 4.5 78 1.6 SW 37 44 20 24 1010.3 - 1.6
25/06:00am 8.3 -0.6 5.1 80 1.4 WSW 41 48 22 26 1010.1 1010.2 1.6
25/05:30am 8.2 -0.2 5.7 84 1.1 SW 39 50 21 27 1009.9 - 1.6
25/05:00am 8.3 0.7 5.8 84 1.1 SW 35 44 19 24 1009.8 - 1.6
25/04:30am 8.2 0.6 5.7 84 1.1 WSW 35 41 19 22 1009.7 - 1.6
25/04:00am 8.4 1.2 5.9 84 1.1 W 33 41 18 22 1009.6 - 1.6
25/03:30am 8.4 0.7 5.5 82 1.3 WSW 35 41 19 22 1009.8 - 1.2
25/03:00am 8.1 0.4 5.4 83 1.2 WSW 35 43 19 23 1009.7 1009.8 1.2
25/02:49am 7.7 0.3 4.8 82 1.3 SW 33 37 18 20 1009.9 - 1.2
25/02:30am 8.3 -1.0 4.9 79 1.5 W 43 50 23 27 1009.8 - 0.0
25/02:20am 9.0 -0.3 5.0 76 1.8 W 43 52 23 28 1009.7 - 0.0
25/02:00am 9.1 1.9 4.9 75 1.9 WSW 32 39 17 21 1010.0 - 0.0
25/01:30am 9.1 1.7 4.9 75 1.9 WSW 33 39 18 21 1010.3 - 0.0
25/01:00am 9.0 1.8 4.8 75 1.9 SW 32 39 17 21 1010.6 - 0.0
25/12:30am 9.1 1.6 4.7 74 2.0 WSW 33 41 18 22 1010.7 - 0.0
25/12:00am 9.0 1.2 4.8 75 1.9 SW 35 43 19 23 1011.0 1011.1 0.0
 
Date/Time
EST
Temp
°C
App
Temp
°C
Dew
Point
°C
Rel
Hum
%
Delta-T
°C
Wind Press
QNH
hPa
Press
MSL
hPa
Rain since
9am
mm
Dir  Spd
km/h
Gust
km/h
Spd
kts
Gust
kts
24/11:30pm 9.1 1.3 4.9 75 1.9 SW 35 43 19 23 1011.2 - 0.0
24/11:00pm 9.3 1.2 5.1 75 1.9 WSW 37 43 20 23 1011.3 - 0.0
24/10:30pm 9.2 1.4 5.0 75 1.9 WSW 35 41 19 22 1011.5 - 0.0
24/10:00pm 9.0 1.1 4.6 74 2.0 WSW 35 43 19 23 1011.7 - 0.0
24/09:30pm 9.1 0.9 4.5 73 2.0 WSW 37 43 20 23 1011.9 - 0.0
24/09:00pm 9.2 0.2 4.6 73 2.1 WSW 41 46 22 25 1011.9 1012.0 0.0
24/08:30pm 9.3 1.1 4.9 74 2.0 WSW 37 44 20 24 1011.9 - 0.0
24/08:00pm 9.0 -0.1 4.2 72 2.1 WSW 41 46 22 25 1011.9 - 0.0
24/07:30pm 9.3 0.6 4.3 71 2.2 WSW 39 44 21 24 1012.1 - 0.0
24/07:00pm 9.2 0.5 4.2 71 2.2 WSW 39 44 21 24 1012.1 - 0.0
24/06:30pm 9.0 1.0 3.6 69 2.4 WSW 35 43 19 23 1012.0 - 0.0
24/06:00pm 9.0 1.0 3.8 70 2.3 WSW 35 43 19 23 1011.9 1012.0 0.0
24/05:30pm 9.2 1.2 3.6 68 2.4 WSW 35 44 19 24 1011.9 - 0.0
24/05:00pm 9.6 2.1 4.2 69 2.4 WSW 33 41 18 22 1012.1 - 0.0
24/04:30pm 9.9 3.1 4.9 71 2.3 WSW 30 35 16 19 1012.2 - 0.0
24/04:00pm 9.6 3.0 4.4 70 2.3 WSW 28 33 15 18 1012.3 - 0.0
24/03:30pm 10.0 4.2 4.4 68 2.5 WSW 24 32 13 17 1012.5 - 0.0
24/03:00pm 10.6 4.7 3.9 63 3.0 WSW 24 30 13 16 1012.7 1012.8 0.0
24/02:30pm 12.4 6.8 5.3 62 3.3 WSW 24 32 13 17 1012.7 - 0.0
24/02:00pm 11.7 5.6 4.9 63 3.1 SW 26 33 14 18 1012.7 - 0.0
24/01:30pm 11.5 5.0 4.7 63 3.1 SW 28 35 15 19 1012.7 - 0.0

Other Formats:

Comma delimited format used in spreadsheet applications
http://www.bom.gov.au/fwo/IDT60801/IDT60801.94949.axf

JavaScript Object Notation format (JSON) in row-major order
http://www.bom.gov.au/fwo/IDT60801/IDT60801.94949.json